Time;durP1;ratioP1;P1;durP2;ratioP2;P2;SDS_P1;SDS_P2;PMS_P1;PMS_P2;Temp;Humidity;BMP_temperature;BMP_pressure;BME280_temperature;BME280_humidity;BME280_pressure;Samples;Min_cycle;Max_cycle;Signal;HPM_P1;HPM_P2
2023/05/28 00:04:44;;;;;;;28.23;8.73;;;;;;;17.11;100.00;99847.22;10409139;28;20523;-64
2023/05/28 00:09:46;;;;;;;15.68;9.00;;;;;;;17.69;100.00;99961.41;10409384;28;20045;-65
2023/05/28 00:14:47;;;;;;;15.32;8.30;;;;;;;17.90;100.00;99988.91;10409298;28;20041;-64
2023/05/28 00:19:48;;;;;;;13.10;8.48;;;;;;;17.88;100.00;99991.81;10409065;28;20065;-64
2023/05/28 00:24:49;;;;;;;15.73;8.18;;;;;;;17.21;100.00;99892.34;10408455;28;20072;-64
2023/05/28 00:29:49;;;;;;;16.98;8.30;;;;;;;17.69;100.00;100004.41;10408354;28;20500;-64
2023/05/28 00:34:50;;;;;;;14.15;8.25;;;;;;;17.57;100.00;99998.94;10408921;28;20049;-64
2023/05/28 00:39:51;;;;;;;17.45;8.07;;;;;;;17.60;100.00;100016.47;10407673;28;20029;-64
2023/05/28 00:44:52;;;;;;;18.38;7.72;;;;;;;17.54;100.00;100038.84;10407067;28;20038;-64
2023/05/28 00:49:55;;;;;;;14.00;7.82;;;;;;;16.97;100.00;99960.28;10407964;28;20068;-64
2023/05/28 00:54:56;;;;;;;17.00;7.80;;;;;;;17.50;100.00;100059.13;10409056;28;20397;-64
2023/05/28 01:00:04;;;;;;;17.25;8.27;;;;;;;17.48;100.00;100053.16;10407343;28;20038;-64
2023/05/28 01:05:05;;;;;;;38.55;9.48;;;;;;;17.21;100.00;100018.50;10407836;28;20067;-64
2023/05/28 01:10:06;;;;;;;27.38;9.00;;;;;;;17.40;100.00;100053.44;10407875;28;20113;-64
2023/05/28 01:15:08;;;;;;;30.98;8.95;;;;;;;17.16;100.00;100031.72;10406928;28;20436;-64
2023/05/28 01:20:13;;;;;;;16.40;8.43;;;;;;;17.24;100.00;100061.00;10407508;28;20102;-64
2023/05/28 01:25:15;;;;;;;21.25;7.88;;;;;;;17.16;100.00;100055.06;10407519;28;20049;-64
2023/05/28 01:30:16;;;;;;;44.38;8.35;;;;;;;17.16;100.00;100073.88;10406542;28;20064;-64
2023/05/28 01:35:17;;;;;;;31.55;9.02;;;;;;;17.15;100.00;100069.53;10407631;28;20041;-64
2023/05/28 01:40:19;;;;;;;19.17;8.30;;;;;;;17.14;100.00;100066.03;10406314;28;20461;-64
2023/05/28 01:45:20;;;;;;;15.13;8.45;;;;;;;16.69;100.00;99998.19;10407300;28;20420;-64
2023/05/28 01:50:21;;;;;;;20.75;8.57;;;;;;;17.12;100.00;100068.13;10406981;28;20480;-64
2023/05/28 01:55:24;;;;;;;15.25;8.50;;;;;;;17.31;100.00;100075.19;10407925;28;20120;-64
2023/05/28 02:00:25;;;;;;;23.27;8.20;;;;;;;17.44;100.00;100085.00;10413458;28;20045;-64
2023/05/28 02:05:25;;;;;;;14.38;8.32;;;;;;;17.44;100.00;100089.53;10413339;28;20480;-64
2023/05/28 02:10:26;;;;;;;16.40;7.47;;;;;;;17.43;100.00;100056.50;10412634;28;20045;-64
2023/05/28 02:15:27;;;;;;;14.63;8.32;;;;;;;17.20;100.00;99975.75;10412603;28;20087;-64
2023/05/28 02:20:28;;;;;;;11.10;7.57;;;;;;;18.18;100.00;100088.66;10413395;28;20049;-64
2023/05/28 02:25:29;;;;;;;13.15;9.30;;;;;;;18.64;100.00;100095.34;10413333;28;20484;-65
2023/05/28 02:30:30;;;;;;;16.90;8.93;;;;;;;19.40;100.00;100087.63;10413322;28;20057;-64
2023/05/28 02:35:31;;;;;;;11.90;8.20;;;;;;;20.25;100.00;100097.13;10412408;28;20045;-65
2023/05/28 02:40:32;;;;;;;11.95;7.80;;;;;;;21.07;100.00;100087.94;10410731;28;20037;-65
2023/05/28 02:45:33;;;;;;;12.35;8.35;;;;;;;21.53;95.90;100018.47;10411768;28;20041;-65
2023/05/28 02:50:33;;;;;;;14.77;7.88;;;;;;;22.44;91.07;100004.50;10412053;28;20416;-65
2023/05/28 02:55:34;;;;;;;10.63;7.75;;;;;;;23.78;86.70;100100.28;10411858;28;20037;-65
2023/05/28 03:00:35;;;;;;;13.32;8.10;;;;;;;24.46;82.65;100094.13;10411119;28;20041;-65
2023/05/28 03:05:36;;;;;;;18.15;9.10;;;;;;;25.02;78.72;100095.09;10410993;28;20493;-65
2023/05/28 03:10:37;;;;;;;12.90;9.65;;;;;;;25.50;76.50;100092.94;10409643;28;20053;-65
2023/05/28 03:15:38;;;;;;;12.50;9.30;;;;;;;25.63;73.98;100030.91;10410726;28;20067;-65
2023/05/28 03:20:38;;;;;;;15.45;9.48;;;;;;;25.99;71.64;100039.81;10410554;28;20225;-65
2023/05/28 03:25:39;;;;;;;20.33;10.10;;;;;;;27.12;69.76;100116.34;10410571;28;20162;-65
2023/05/28 03:30:40;;;;;;;26.08;10.63;;;;;;;27.64;67.23;100100.41;10411905;28;20068;-65
2023/05/28 03:35:41;;;;;;;11.93;10.48;;;;;;;28.11;65.05;100102.41;10411154;28;20086;-65
2023/05/28 03:40:42;;;;;;;12.40;9.68;;;;;;;27.71;64.04;100036.22;10411209;28;20051;-65
2023/05/28 03:45:42;;;;;;;15.90;11.20;;;;;;;28.32;62.81;100086.59;10410355;28;20489;-65
2023/05/28 03:50:43;;;;;;;23.77;18.05;;;;;;;28.29;61.96;100050.84;10410519;28;20042;-66
2023/05/28 03:55:44;;;;;;;18.15;13.75;;;;;;;29.06;61.00;100097.09;10409530;28;20088;-65
2023/05/28 04:00:45;;;;;;;16.10;13.75;;;;;;;29.21;58.71;100050.34;10409393;28;20143;-65
2023/05/28 04:05:46;;;;;;;16.25;10.65;;;;;;;29.83;57.41;100104.06;10408578;28;20619;-66
2023/05/28 04:10:47;;;;;;;12.45;10.50;;;;;;;30.03;56.94;100104.47;10409562;28;20049;-65
2023/05/28 04:15:48;;;;;;;7.95;5.90;;;;;;;30.35;56.78;100099.22;10410459;28;20053;-65
2023/05/28 04:20:49;;;;;;;9.00;4.72;;;;;;;30.67;54.69;100098.25;10408029;28;20048;-65
2023/05/28 04:25:50;;;;;;;9.55;5.20;;;;;;;30.83;53.21;100087.75;10409023;28;20075;-65
2023/05/28 04:30:51;;;;;;;9.15;4.40;;;;;;;31.22;53.13;100100.81;10409087;28;20053;-65
2023/05/28 04:35:53;;;;;;;8.80;4.60;;;;;;;30.57;53.86;100006.06;10409211;28;20053;-65
2023/05/28 04:40:54;;;;;;;12.05;5.47;;;;;;;30.32;53.41;100017.63;10407408;28;20042;-65
2023/05/28 04:45:55;;;;;;;7.43;4.63;;;;;;;31.06;52.38;100107.81;10407985;28;20050;-65
2023/05/28 04:50:56;;;;;;;8.73;5.28;;;;;;;30.13;53.39;100102.66;10407198;28;20086;-65
2023/05/28 04:55:57;;;;;;;8.13;4.50;;;;;;;29.54;53.21;100025.69;10408345;28;20042;-64
2023/05/28 05:00:58;;;;;;;16.80;5.20;;;;;;;29.69;54.68;100093.06;10407441;28;20087;-65
2023/05/28 05:05:59;;;;;;;8.88;4.30;;;;;;;29.01;54.60;100021.38;10408073;28;20045;-65
2023/05/28 05:11:01;;;;;;;8.55;4.65;;;;;;;28.66;55.61;100059.13;10406497;28;20302;-64
2023/05/28 05:16:02;;;;;;;9.55;4.68;;;;;;;28.09;56.60;100073.75;10407746;28;20033;-65
2023/05/28 05:21:03;;;;;;;11.73;4.00;;;;;;;27.97;57.08;100126.88;10408136;28;20048;-64
2023/05/28 05:26:03;;;;;;;9.35;3.97;;;;;;;27.89;58.37;100113.84;10407799;28;20050;-64
2023/05/28 05:31:04;;;;;;;7.38;4.10;;;;;;;27.82;58.66;100118.00;10404906;28;20092;-64
2023/05/28 05:36:06;;;;;;;11.00;3.67;;;;;;;27.93;59.14;100105.88;10403834;28;20037;-65
2023/05/28 05:41:07;;;;;;;8.15;3.40;;;;;;;27.89;58.88;100093.94;10390951;28;20458;-64
2023/05/28 05:46:07;;;;;;;7.88;3.75;;;;;;;27.89;59.35;100072.91;10387926;28;20073;-64
2023/05/28 05:51:08;;;;;;;24.08;4.45;;;;;;;27.71;60.17;100044.41;10401344;28;20076;-65
2023/05/28 05:56:09;;;;;;;9.68;3.30;;;;;;;28.04;58.56;100071.91;10400249;28;20124;-64
2023/05/28 06:01:10;;;;;;;7.25;3.33;;;;;;;28.31;57.68;100097.81;10405742;28;20401;-65
2023/05/28 06:06:10;;;;;;;6.88;2.88;;;;;;;28.06;58.19;100058.78;10403825;28;20049;-65
2023/05/28 06:11:11;;;;;;;7.90;2.97;;;;;;;27.89;58.34;100085.72;10403773;28;20077;-64
2023/05/28 06:16:12;;;;;;;9.10;3.60;;;;;;;27.15;59.44;100079.56;10402771;28;20053;-63
2023/05/28 06:21:13;;;;;;;9.43;3.75;;;;;;;26.38;59.75;99980.03;10405250;28;20041;-64
2023/05/28 06:26:14;;;;;;;8.73;3.38;;;;;;;27.04;59.33;100070.59;10404722;28;20128;-63
2023/05/28 06:31:15;;;;;;;9.73;3.63;;;;;;;27.52;58.50;100055.25;10406050;28;20621;-66
2023/05/28 06:36:17;;;;;;;8.85;3.58;;;;;;;27.96;57.15;100067.09;10388792;28;20405;-65
2023/05/28 06:41:18;;;;;;;11.95;3.60;;;;;;;28.13;54.81;100080.28;10384767;28;20045;-64
2023/05/28 06:46:21;;;;;;;7.63;3.40;;;;;;;27.69;54.91;100000.19;10399606;28;20052;-64
2023/05/28 06:51:21;;;;;;;9.07;3.42;;;;;;;28.34;54.34;100076.19;10399790;28;20050;-64
2023/05/28 06:56:23;;;;;;;12.90;3.63;;;;;;;28.43;54.69;100065.44;10394002;28;20408;-66
2023/05/28 07:01:24;;;;;;;12.57;3.38;;;;;;;28.18;54.27;100001.84;10396696;28;20045;-65
2023/05/28 07:06:25;;;;;;;9.38;3.13;;;;;;;28.27;53.92;99976.56;10396613;28;20044;-66
2023/05/28 07:11:29;;;;;;;9.90;3.60;;;;;;;28.36;53.66;99981.09;10397937;28;20504;-66
2023/05/28 07:16:30;;;;;;;9.80;3.20;;;;;;;28.99;53.15;100063.81;10387998;28;20052;-65
2023/05/28 07:21:32;;;;;;;9.38;3.40;;;;;;;28.88;52.02;100042.09;10389148;28;20078;-66
2023/05/28 07:26:33;;;;;;;25.07;4.60;;;;;;;28.87;52.62;100050.63;10392338;28;20382;-66
2023/05/28 07:31:38;;;;;;;10.32;3.50;;;;;;;28.51;51.70;100051.13;10393274;28;20149;-65
2023/05/28 07:36:38;;;;;;;10.32;3.30;;;;;;;28.17;54.84;100041.16;10392372;28;20048;-64
2023/05/28 07:41:39;;;;;;;15.27;3.33;;;;;;;28.17;55.30;100035.69;10389456;28;20045;-64
2023/05/28 07:46:40;;;;;;;11.57;3.33;;;;;;;28.34;53.90;99972.38;10393090;28;20104;-64
2023/05/28 07:51:41;;;;;;;38.70;5.03;;;;;;;28.71;53.42;100000.00;10398056;28;20073;-64
2023/05/28 07:56:42;;;;;;;16.25;3.85;;;;;;;28.70;52.77;100044.84;10389161;28;20527;-68
2023/05/28 08:01:43;;;;;;;12.30;4.20;;;;;;;28.69;52.52;100044.06;10394234;28;20049;-65
2023/05/28 08:06:44;;;;;;;7.97;3.28;;;;;;;27.92;53.29;99948.66;10384536;28;20030;-64
2023/05/28 08:11:44;;;;;;;13.15;3.55;;;;;;;28.44;52.60;100042.47;10390127;28;20045;-64
2023/05/28 08:16:45;;;;;;;11.50;3.78;;;;;;;28.51;53.47;100023.81;10394447;28;20034;-64
2023/05/28 08:21:46;;;;;;;11.02;3.55;;;;;;;28.87;51.87;100045.16;10395274;28;20086;-64
2023/05/28 08:26:47;;;;;;;12.05;3.60;;;;;;;29.14;52.50;100047.19;10390874;28;20046;-68
2023/05/28 08:31:48;;;;;;;10.15;3.40;;;;;;;29.37;52.85;100055.56;10390465;28;20137;-65
2023/05/28 08:36:48;;;;;;;6.47;3.03;;;;;;;29.62;50.96;100027.78;10384149;28;20535;-66
2023/05/28 08:41:49;;;;;;;17.02;3.90;;;;;;;29.81;51.47;100041.38;10384546;28;20042;-66
2023/05/28 08:46:51;;;;;;;11.60;3.67;;;;;;;30.00;50.04;100044.81;10385394;28;20457;-66
2023/05/28 08:51:54;;;;;;;9.05;3.40;;;;;;;29.84;50.10;100018.03;10390620;28;20048;-66
2023/05/28 08:56:55;;;;;;;10.32;3.17;;;;;;;29.91;48.97;100019.25;10390033;28;20046;-66
2023/05/28 09:01:56;;;;;;;9.13;3.53;;;;;;;30.07;48.46;100035.38;10392431;28;20441;-67
2023/05/28 09:06:56;;;;;;;8.85;3.92;;;;;;;29.80;49.13;100004.16;10395701;28;20033;-65
2023/05/28 09:12:04;;;;;;;7.18;3.33;;;;;;;29.97;46.75;100031.72;10386161;28;20568;-66
2023/05/28 09:17:04;;;;;;;10.07;2.95;;;;;;;30.00;47.67;100024.81;10395271;28;20047;-67
2023/05/28 09:22:05;;;;;;;10.10;3.25;;;;;;;29.73;47.31;100017.44;10394291;28;20034;-65
2023/05/28 09:27:07;;;;;;;13.88;3.58;;;;;;;29.91;48.35;100018.44;10391906;28;20054;-67
2023/05/28 09:32:08;;;;;;;8.63;3.45;;;;;;;30.11;49.05;100006.25;10393995;28;20053;-65
2023/05/28 09:37:08;;;;;;;8.90;3.13;;;;;;;29.88;48.37;99950.59;10397196;28;20037;-66
2023/05/28 09:42:09;;;;;;;7.72;3.30;;;;;;;29.85;47.32;99952.00;10400247;28;20038;-66
2023/05/28 09:47:18;;;;;;;25.02;3.53;;;;;;;30.26;47.44;100014.16;10407907;28;20124;-65
2023/05/28 09:52:20;;;;;;;10.70;3.25;;;;;;;30.24;47.90;99989.84;10406623;28;20523;-65
2023/05/28 09:57:32;;;;;;;10.18;3.40;;;;;;;30.24;46.88;99969.81;10406465;28;20095;-65
2023/05/28 10:02:59;;;;;;;8.37;3.57;;;;;;;30.41;47.49;99999.31;10404482;28;20049;-65
2023/05/28 10:08:02;;;;;;;11.70;3.90;;;;;;;30.10;49.10;99996.44;10398539;28;20347;-65
2023/05/28 10:13:02;;;;;;;10.95;3.70;;;;;;;29.45;48.40;99929.00;10406316;28;20046;-64
2023/05/28 10:18:03;;;;;;;10.68;3.50;;;;;;;30.13;49.60;99982.13;10406784;28;20046;-66
2023/05/28 10:23:05;;;;;;;10.80;4.07;;;;;;;30.54;48.20;99986.69;10408275;28;20049;-65
2023/05/28 10:28:06;;;;;;;8.68;3.47;;;;;;;30.47;47.65;99987.13;10412155;28;20064;-65
2023/05/28 10:33:25;;;;;;;14.88;3.60;;;;;;;30.52;48.32;99986.22;10412951;28;20053;-65
2023/05/28 10:38:27;;;;;;;18.20;3.65;;;;;;;30.43;47.92;99986.13;10412650;28;20049;-63
2023/05/28 10:43:37;;;;;;;6.63;3.30;;;;;;;30.68;45.22;99987.44;10412520;28;20049;-63
2023/05/28 10:48:42;;;;;;;21.50;4.78;;;;;;;30.78;45.49;99989.13;10411147;28;20407;-64
2023/05/28 10:53:46;;;;;;;15.25;3.35;;;;;;;30.40;45.36;99907.28;10412015;28;20042;-63
2023/05/28 10:58:47;;;;;;;14.40;3.83;;;;;;;30.71;46.22;99968.44;10411314;28;20042;-63
2023/05/28 11:03:55;;;;;;;10.10;3.00;;;;;;;30.67;44.75;99920.03;10410316;28;20041;-65
2023/05/28 11:08:57;;;;;;;7.32;2.92;;;;;;;30.75;44.63;99932.16;10410342;28;20060;-64
2023/05/28 11:14:01;;;;;;;6.28;3.00;;;;;;;30.61;44.58;99943.22;10409593;28;20446;-64
2023/05/28 11:19:01;;;;;;;11.60;3.45;;;;;;;30.75;46.25;99930.22;10412079;28;20092;-64
2023/05/28 11:24:03;;;;;;;10.27;3.60;;;;;;;30.69;44.67;99918.59;10410500;28;20088;-64
2023/05/28 11:29:05;;;;;;;12.38;3.67;;;;;;;30.60;46.45;99916.91;10411031;28;20061;-65
2023/05/28 11:34:07;;;;;;;8.40;3.35;;;;;;;30.72;46.10;99922.63;10410855;28;20057;-64
2023/05/28 11:39:08;;;;;;;7.22;3.65;;;;;;;30.21;46.20;99845.25;10410995;28;20037;-65
2023/05/28 11:44:24;;;;;;;14.73;3.60;;;;;;;30.65;46.86;99922.28;10410716;28;20196;-65
2023/05/28 11:49:25;;;;;;;8.60;3.22;;;;;;;30.57;46.10;99915.59;10406552;28;20049;-64
2023/05/28 11:54:25;;;;;;;11.43;3.10;;;;;;;30.68;45.73;99933.41;10400356;28;20096;-65
2023/05/28 11:59:26;;;;;;;9.02;3.40;;;;;;;30.60;44.82;99903.19;10397150;28;20037;-66
2023/05/28 12:04:27;;;;;;;15.00;3.08;;;;;;;30.74;44.95;99914.91;10400928;28;20517;-65
2023/05/28 12:09:27;;;;;;;10.35;3.38;;;;;;;30.83;44.91;99926.78;10408166;28;20041;-66
2023/05/28 12:14:30;;;;;;;32.10;5.35;;;;;;;30.71;45.09;99904.56;10408979;28;20409;-65
2023/05/28 12:19:32;;;;;;;16.48;4.07;;;;;;;30.69;45.00;99896.69;10408741;28;20033;-65
2023/05/28 12:24:33;;;;;;;7.47;2.97;;;;;;;30.78;44.80;99904.97;10409280;28;20129;-66
2023/05/28 12:29:34;;;;;;;21.55;3.40;;;;;;;30.68;45.41;99899.72;10409821;28;20163;-65
2023/05/28 12:34:35;;;;;;;8.38;3.03;;;;;;;30.43;44.51;99838.94;10408245;28;20046;-65
2023/05/28 12:39:37;;;;;;;6.20;2.63;;;;;;;30.75;43.21;99886.38;10407095;28;20052;-65
2023/05/28 12:44:38;;;;;;;18.33;9.40;;;;;;;30.33;44.56;99808.25;10408636;28;20038;-65
2023/05/28 12:49:39;;;;;;;9.60;4.88;;;;;;;30.27;43.96;99804.00;10407662;28;20530;-67
2023/05/28 12:54:41;;;;;;;7.03;3.83;;;;;;;30.45;42.63;99874.25;10408628;28;20507;-66
2023/05/28 12:59:41;;;;;;;16.30;3.85;;;;;;;30.46;43.37;99884.09;10408222;28;20553;-66
2023/05/28 13:04:42;;;;;;;9.63;2.55;;;;;;;30.01;43.04;99819.13;10407323;28;20041;-65
2023/05/28 13:09:43;;;;;;;22.73;3.33;;;;;;;29.99;43.70;99798.63;10407196;28;20078;-66
2023/05/28 13:14:44;;;;;;;7.07;2.38;;;;;;;30.50;44.25;99876.88;10407951;28;20050;-65
2023/05/28 13:19:45;;;;;;;7.70;2.40;;;;;;;30.45;44.31;99866.03;10406790;28;20091;-65
2023/05/28 13:24:45;;;;;;;6.05;2.40;;;;;;;30.26;44.10;99805.94;10406249;28;20034;-65
2023/05/28 13:29:46;;;;;;;5.40;2.53;;;;;;;30.56;42.92;99870.13;10405201;28;20110;-65
2023/05/28 13:34:47;;;;;;;9.85;2.78;;;;;;;30.64;44.05;99865.84;10407539;28;20048;-66
2023/05/28 13:39:48;;;;;;;5.60;2.22;;;;;;;30.36;43.70;99824.84;10406972;28;20045;-66
2023/05/28 13:44:50;;;;;;;6.13;2.20;;;;;;;30.37;43.13;99864.06;10406277;28;20526;-65
2023/05/28 13:49:51;;;;;;;9.83;2.87;;;;;;;30.31;43.49;99846.94;10407341;28;20481;-65
2023/05/28 13:54:51;;;;;;;6.38;2.38;;;;;;;29.52;43.50;99727.69;10413125;28;20033;-66
2023/05/28 13:59:52;;;;;;;7.32;2.42;;;;;;;29.80;44.01;99816.06;10413925;28;20048;-66
2023/05/28 14:04:53;;;;;;;12.40;2.50;;;;;;;30.07;43.63;99877.34;10413589;28;20378;-66
2023/05/28 14:09:54;;;;;;;9.13;2.20;;;;;;;29.77;43.50;99882.38;10413299;28;20041;-66
2023/05/28 14:14:54;;;;;;;11.88;2.65;;;;;;;29.47;44.15;99889.28;10412771;28;20609;-66
2023/05/28 14:19:55;;;;;;;6.57;2.55;;;;;;;29.27;43.65;99900.63;10413329;28;20045;-66
2023/05/28 14:24:56;;;;;;;13.80;3.17;;;;;;;29.17;44.94;99893.44;10411318;28;20061;-65
2023/05/28 14:29:57;;;;;;;9.45;2.45;;;;;;;29.02;44.26;99877.31;10413502;28;20140;-65
2023/05/28 14:35:00;;;;;;;7.32;2.50;;;;;;;28.83;44.95;99875.41;10412572;28;20087;-66
2023/05/28 14:40:01;;;;;;;8.63;2.53;;;;;;;28.73;45.27;99870.13;10411962;28;20086;-65
2023/05/28 14:45:03;;;;;;;6.35;2.28;;;;;;;28.11;45.97;99799.28;10411911;28;20052;-66
2023/05/28 14:50:05;;;;;;;8.70;3.00;;;;;;;28.56;45.49;99884.34;10411741;28;20454;-65
2023/05/28 14:55:06;;;;;;;10.20;2.37;;;;;;;27.96;45.80;99807.72;10411734;28;20037;-65
2023/05/28 15:00:10;;;;;;;10.82;3.45;;;;;;;27.90;46.27;99811.66;10412303;28;20124;-66
2023/05/28 15:05:10;;;;;;;27.27;4.18;;;;;;;28.23;46.67;99888.97;10410716;28;20049;-65
2023/05/28 15:10:11;;;;;;;14.63;2.58;;;;;;;27.66;46.50;99820.69;10409916;28;20045;-66
2023/05/28 15:15:12;;;;;;;8.80;2.70;;;;;;;27.89;46.56;99879.09;10411506;28;20504;-65
2023/05/28 15:20:13;;;;;;;10.32;2.83;;;;;;;27.96;46.74;99900.56;10410839;28;20139;-65
2023/05/28 15:25:14;;;;;;;7.85;2.47;;;;;;;27.64;47.12;99863.84;10411407;28;20047;-65
2023/05/28 15:30:15;;;;;;;12.65;2.83;;;;;;;27.79;47.51;99912.00;10411095;28;20065;-65
2023/05/28 15:35:16;;;;;;;7.75;2.67;;;;;;;26.88;47.49;99782.94;10410776;28;20042;-65
2023/05/28 15:40:17;;;;;;;10.25;3.42;;;;;;;27.36;48.07;99872.91;10410113;28;20045;-65
2023/05/28 15:45:19;;;;;;;14.63;3.08;;;;;;;27.62;47.78;99934.25;10410220;28;20090;-65
2023/05/28 15:50:20;;;;;;;7.27;2.93;;;;;;;27.53;48.20;99917.72;10409723;28;20050;-65
2023/05/28 15:55:21;;;;;;;22.70;4.43;;;;;;;27.24;49.89;99912.31;10410182;28;20439;-64
2023/05/28 16:00:22;;;;;;;37.28;7.18;;;;;;;26.98;51.58;99908.19;10409404;28;20458;-65
2023/05/28 16:05:23;;;;;;;18.98;7.85;;;;;;;26.84;53.48;99929.88;10410027;28;20128;-66
2023/05/28 16:10:24;;;;;;;22.65;8.30;;;;;;;26.53;54.82;99934.72;10409254;28;20135;-65
2023/05/28 16:15:25;;;;;;;25.95;7.40;;;;;;;26.17;56.92;99921.31;10460318;27;20035;-66
2023/05/28 16:20:26;;;;;;;41.47;10.70;;;;;;;25.94;59.06;99922.84;10469721;27;20088;-65
2023/05/28 16:25:28;;;;;;;47.95;14.48;;;;;;;25.77;61.98;99941.38;10389342;28;20045;-65
2023/05/28 16:30:29;;;;;;;37.17;21.45;;;;;;;25.50;62.03;99937.94;10405497;28;20144;-64
2023/05/28 16:35:30;;;;;;;153.70;53.53;;;;;;;25.22;63.30;99919.53;10379746;28;20133;-64
2023/05/28 16:40:31;;;;;;;244.48;38.90;;;;;;;24.93;65.89;99920.09;10380467;28;20041;-65
2023/05/28 16:45:32;;;;;;;160.60;45.50;;;;;;;24.74;67.18;99928.00;10398867;28;20041;-64
2023/05/28 16:50:33;;;;;;;80.13;32.63;;;;;;;24.56;67.56;99936.66;10407099;28;20049;-63
2023/05/28 16:55:33;;;;;;;170.73;73.90;;;;;;;24.46;68.46;99947.50;10408640;28;20049;-64
2023/05/28 17:00:34;;;;;;;96.53;45.38;;;;;;;24.06;69.22;99913.75;10408379;28;20106;-65
2023/05/28 17:05:35;;;;;;;136.75;63.22;;;;;;;24.10;71.05;99950.94;10407831;28;20553;-63
2023/05/28 17:10:36;;;;;;;97.47;45.78;;;;;;;23.90;72.60;99946.28;10407143;28;20114;-65
2023/05/28 17:15:37;;;;;;;26.27;11.70;;;;;;;23.68;73.24;99932.03;10452129;28;20054;-65
2023/05/28 17:20:38;;;;;;;77.00;38.20;;;;;;;23.56;74.37;99934.16;10537281;28;20130;-65
2023/05/28 17:25:39;;;;;;;77.85;36.15;;;;;;;23.46;76.11;99951.19;10537340;28;20128;-65
2023/05/28 17:30:40;;;;;;;40.15;20.80;;;;;;;23.35;76.67;99957.63;10537973;28;20142;-66
2023/05/28 17:35:41;;;;;;;27.45;14.02;;;;;;;23.08;77.00;99936.84;10537139;28;20123;-65
2023/05/28 17:40:42;;;;;;;27.23;14.02;;;;;;;22.99;78.55;99962.78;10536855;28;20047;-65
2023/05/28 17:45:43;;;;;;;22.83;12.25;;;;;;;22.53;78.58;99900.94;10538048;28;20508;-65
2023/05/28 17:50:44;;;;;;;43.13;18.67;;;;;;;22.98;79.25;99972.00;10536737;28;20081;-66
2023/05/28 17:55:45;;;;;;;59.85;28.27;;;;;;;22.53;80.38;99884.69;10536988;28;20138;-65
2023/05/28 18:00:46;;;;;;;37.25;15.00;;;;;;;22.07;81.32;99832.81;10537177;28;20040;-65
2023/05/28 18:05:48;;;;;;;26.80;10.20;;;;;;;22.47;81.60;99901.97;10536543;28;20080;-65
2023/05/28 18:10:56;;;;;;;38.65;17.80;;;;;;;22.86;82.56;99963.22;10536267;28;20046;-65
2023/05/28 18:15:56;;;;;;;32.00;17.77;;;;;;;22.81;82.60;99969.38;10535961;28;20039;-66
2023/05/28 18:20:58;;;;;;;29.45;17.23;;;;;;;22.83;83.14;99977.25;10537178;28;20051;-65
2023/05/28 18:25:58;;;;;;;31.02;19.95;;;;;;;22.77;83.78;99966.38;10536607;28;20040;-65
2023/05/28 18:30:59;;;;;;;40.67;17.95;;;;;;;22.25;84.23;99887.66;10537102;28;20071;-66
2023/05/28 18:36:02;;;;;;;28.25;15.13;;;;;;;22.67;84.74;99944.63;10535615;28;20500;-66
2023/05/28 18:41:03;;;;;;;30.17;14.07;;;;;;;22.73;84.35;99959.00;10542727;28;20073;-65
2023/05/28 18:46:04;;;;;;;24.83;13.32;;;;;;;22.66;84.66;99963.84;10543209;28;20567;-65
2023/05/28 18:51:06;;;;;;;32.33;12.68;;;;;;;22.47;84.19;99930.91;10542975;28;20074;-65
2023/05/28 18:56:07;;;;;;;28.73;13.40;;;;;;;21.97;84.19;99857.06;10542865;28;20040;-65
2023/05/28 19:01:07;;;;;;;26.15;12.50;;;;;;;22.50;83.79;99927.69;10543593;28;20491;-66
2023/05/28 19:06:08;;;;;;;23.25;11.13;;;;;;;22.50;83.65;99919.59;10543773;28;20177;-65
2023/05/28 19:11:11;;;;;;;23.80;9.85;;;;;;;22.61;80.90;99924.00;10543272;28;20040;-65
2023/05/28 19:16:12;;;;;;;41.22;27.27;;;;;;;22.00;79.66;99820.59;10542572;28;20036;-65
2023/05/28 19:21:12;;;;;;;28.48;11.45;;;;;;;22.65;78.01;99916.19;10541964;28;20044;-65
2023/05/28 19:26:14;;;;;;;29.35;10.88;;;;;;;22.68;76.59;99910.25;10542404;28;20047;-65
2023/05/28 19:31:15;;;;;;;26.25;8.57;;;;;;;22.54;75.15;99863.84;10541732;28;20060;-66
2023/05/28 19:36:16;;;;;;;15.00;6.43;;;;;;;22.02;73.58;99775.19;10539843;28;20040;-66
2023/05/28 19:41:16;;;;;;;20.23;7.78;;;;;;;22.89;72.94;99889.56;10542167;28;20055;-66
2023/05/28 19:46:17;;;;;;;20.05;6.97;;;;;;;22.91;71.95;99885.50;10541722;28;20058;-65
2023/05/28 19:51:18;;;;;;;23.08;5.65;;;;;;;23.00;72.22;99894.81;10539506;28;20075;-65
2023/05/28 19:56:23;;;;;;;11.13;4.88;;;;;;;22.95;71.00;99885.84;10541032;28;20064;-66
2023/05/28 20:01:24;;;;;;;9.70;3.80;;;;;;;22.66;70.34;99826.56;10538760;28;20086;-65
2023/05/28 20:06:24;;;;;;;12.30;3.75;;;;;;;23.01;69.58;99884.78;10540314;28;20504;-66
2023/05/28 20:11:26;;;;;;;9.27;3.50;;;;;;;23.06;69.24;99871.25;10540063;28;20047;-65
2023/05/28 20:16:26;;;;;;;9.32;3.60;;;;;;;22.18;69.03;99722.84;10538558;28;20098;-65
2023/05/28 20:21:27;;;;;;;15.48;3.50;;;;;;;23.06;68.67;99846.88;10538082;28;20085;-65
2023/05/28 20:26:28;;;;;;;9.20;3.63;;;;;;;23.15;68.21;99849.91;10539184;28;20054;-66
2023/05/28 20:31:29;;;;;;;10.00;3.53;;;;;;;22.83;67.43;99787.69;10538249;28;20143;-65
2023/05/28 20:36:30;;;;;;;8.45;3.20;;;;;;;23.28;66.50;99824.25;10538839;28;20051;-65
2023/05/28 20:41:30;;;;;;;7.10;3.42;;;;;;;23.39;65.88;99824.03;10539368;28;20492;-66
2023/05/28 20:46:32;;;;;;;9.48;3.30;;;;;;;23.05;65.36;99750.44;10539029;28;20134;-65
2023/05/28 20:51:32;;;;;;;9.60;3.75;;;;;;;23.34;64.67;99786.06;10538787;28;20083;-65
2023/05/28 20:56:36;;;;;;;8.55;3.53;;;;;;;23.40;64.48;99795.03;10538565;28;20060;-65
2023/05/28 21:01:39;;;;;;;9.48;2.97;;;;;;;23.43;64.49;99794.50;10537167;28;20128;-65
2023/05/28 21:06:40;;;;;;;6.53;2.90;;;;;;;23.29;64.48;99774.38;10537861;28;20032;-65
2023/05/28 21:11:41;;;;;;;6.93;2.85;;;;;;;23.26;64.31;99773.00;10538228;28;20365;-66
2023/05/28 21:16:42;;;;;;;13.02;3.08;;;;;;;23.25;64.01;99776.81;10538825;28;20040;-65
2023/05/28 21:21:43;;;;;;;9.25;3.28;;;;;;;22.81;63.41;99693.16;10537695;28;20093;-65
2023/05/28 21:26:44;;;;;;;10.07;3.15;;;;;;;22.80;63.49;99694.25;10537868;28;20127;-65
2023/05/28 21:31:44;;;;;;;11.50;3.20;;;;;;;23.18;63.95;99777.06;10537944;28;20426;-65
2023/05/28 21:36:47;;;;;;;8.77;2.60;;;;;;;22.30;63.65;99630.69;10537260;28;20052;-65
2023/05/28 21:41:47;;;;;;;8.05;3.22;;;;;;;22.68;63.71;99685.53;10536880;28;20552;-64
2023/05/28 21:46:49;;;;;;;10.75;3.38;;;;;;;22.62;63.65;99670.34;10536758;28;20046;-65
2023/05/28 21:51:50;;;;;;;7.13;2.75;;;;;;;23.01;64.35;99742.03;10536887;28;20070;-65
2023/05/28 21:56:51;;;;;;;11.38;2.95;;;;;;;22.88;64.42;99738.97;10537047;28;20036;-65
2023/05/28 22:01:52;;;;;;;7.85;3.10;;;;;;;22.75;64.62;99738.34;10537137;28;20039;-65
2023/05/28 22:06:52;;;;;;;8.27;3.42;;;;;;;22.82;64.76;99745.44;10536619;28;20457;-65
2023/05/28 22:11:57;;;;;;;7.82;2.75;;;;;;;22.74;65.26;99741.34;10538384;28;20055;-65
2023/05/28 22:16:57;;;;;;;9.32;3.88;;;;;;;22.21;65.56;99668.22;10543378;28;20061;-65
2023/05/28 22:21:58;;;;;;;8.75;3.63;;;;;;;22.47;66.43;99725.22;10544972;28;20032;-65
2023/05/28 22:26:59;;;;;;;6.40;2.90;;;;;;;21.95;66.98;99669.91;10544604;28;20066;-65
2023/05/28 22:32:01;;;;;;;12.10;3.28;;;;;;;22.13;67.79;99716.56;10543984;28;20048;-65
2023/05/28 22:37:03;;;;;;;10.77;3.35;;;;;;;21.58;68.27;99640.16;10544437;28;20171;-65
2023/05/28 22:42:05;;;;;;;6.95;3.10;;;;;;;21.88;68.91;99710.69;10544699;28;20176;-65
2023/05/28 22:47:06;;;;;;;9.00;3.50;;;;;;;21.96;69.25;99722.13;10543884;28;20050;-65
2023/05/28 22:52:07;;;;;;;9.95;3.30;;;;;;;21.88;69.47;99724.22;10543617;28;20503;-65
2023/05/28 22:57:08;;;;;;;9.65;3.33;;;;;;;21.35;69.66;99647.47;10542238;28;20036;-65
2023/05/28 23:02:08;;;;;;;9.23;3.45;;;;;;;21.78;69.97;99726.84;10543415;28;20047;-65